createdAt,value
2024-02-29T00:00:59.951Z,11.50
2024-02-29T00:03:28.375Z,11.50
2024-02-29T00:05:56.661Z,11.50
2024-02-29T00:08:24.985Z,11.50
2024-02-29T00:10:53.532Z,11.60
2024-02-29T00:13:22.451Z,11.60
2024-02-29T00:15:52.181Z,11.60
2024-02-29T00:18:20.554Z,11.50
2024-02-29T00:20:49.060Z,11.50
2024-02-29T00:23:17.345Z,11.50
2024-02-29T00:25:45.781Z,11.50
2024-02-29T00:28:14.396Z,11.60
2024-02-29T00:30:43.487Z,11.60
2024-02-29T00:33:13.244Z,11.60
2024-02-29T00:35:46.575Z,11.60
2024-02-29T00:38:17.897Z,11.60
2024-02-29T00:40:46.334Z,11.60
2024-02-29T00:43:14.706Z,11.60
2024-02-29T00:45:43.096Z,11.60
2024-02-29T00:48:12.801Z,11.60
2024-02-29T00:50:41.139Z,11.70
2024-02-29T00:53:09.454Z,11.60
2024-02-29T00:55:37.846Z,11.70
2024-02-29T00:58:06.549Z,11.60
2024-02-29T01:00:34.957Z,11.60
2024-02-29T01:03:03.555Z,11.60
2024-02-29T01:05:33.229Z,11.60
2024-02-29T01:08:01.701Z,11.70
2024-02-29T01:10:30.061Z,11.70
2024-02-29T01:12:58.981Z,11.60
2024-02-29T01:15:27.501Z,11.60
2024-02-29T01:17:55.937Z,11.60
2024-02-29T01:20:24.313Z,11.60
2024-02-29T01:22:54.010Z,11.70
2024-02-29T01:25:22.684Z,11.60
2024-02-29T01:27:51.390Z,11.60
2024-02-29T01:30:19.904Z,11.70
2024-02-29T01:32:48.495Z,11.70
2024-02-29T01:35:17.018Z,11.60
2024-02-29T01:37:45.411Z,11.60
2024-02-29T01:40:19.214Z,11.60
2024-02-29T01:42:47.832Z,11.70
2024-02-29T01:45:18.013Z,11.70
2024-02-29T01:47:46.388Z,11.70
2024-02-29T01:50:16.723Z,11.60
2024-02-29T01:52:46.558Z,11.60
2024-02-29T01:55:16.559Z,11.70
2024-02-29T01:57:45.958Z,11.70
2024-02-29T02:00:15.398Z,11.60
2024-02-29T02:02:44.392Z,11.60
2024-02-29T02:05:12.896Z,11.60
2024-02-29T02:07:45.301Z,11.60
2024-02-29T02:10:15.164Z,11.60
2024-02-29T02:12:43.572Z,11.60
2024-02-29T02:15:12.113Z,11.60
2024-02-29T02:17:40.537Z,11.70
2024-02-29T02:20:11.016Z,11.60
2024-02-29T02:22:40.793Z,11.60
2024-02-29T02:25:09.499Z,11.60
2024-02-29T02:27:39.506Z,11.70
2024-02-29T02:30:08.995Z,11.60
2024-02-29T02:32:37.712Z,11.60
2024-02-29T02:35:07.764Z,11.60
2024-02-29T02:37:37.624Z,11.60
2024-02-29T02:40:09.276Z,11.60
2024-02-29T02:42:37.807Z,11.60
2024-02-29T02:45:07.025Z,11.70
2024-02-29T02:47:35.356Z,11.60
2024-02-29T02:50:03.744Z,11.60
2024-02-29T02:52:32.065Z,11.60
2024-02-29T02:55:00.537Z,11.60
2024-02-29T02:57:30.287Z,11.60
2024-02-29T02:59:58.811Z,11.60
2024-02-29T03:02:27.202Z,11.60
2024-02-29T03:04:55.516Z,11.60
2024-02-29T03:07:24.265Z,11.50
2024-02-29T03:09:52.630Z,11.50
2024-02-29T03:12:20.983Z,11.40
2024-02-29T03:14:51.246Z,11.40
2024-02-29T03:17:20.719Z,11.40
2024-02-29T03:19:49.321Z,11.40
2024-02-29T03:22:17.710Z,11.30
2024-02-29T03:24:47.180Z,11.30
2024-02-29T03:27:15.632Z,11.40
2024-02-29T03:29:44.462Z,11.30
2024-02-29T03:32:14.259Z,11.30
2024-02-29T03:34:42.605Z,11.20
2024-02-29T03:37:11.204Z,11.20
2024-02-29T03:39:40.206Z,11.20
2024-02-29T03:42:08.845Z,11.20
2024-02-29T03:44:37.182Z,11.20
2024-02-29T03:47:05.931Z,11.20
2024-02-29T03:49:35.905Z,11.10
2024-02-29T03:52:04.481Z,11.10
2024-02-29T03:54:32.934Z,11.10
2024-02-29T03:57:01.413Z,11.10
2024-02-29T03:59:29.728Z,11.10
2024-02-29T04:02:01.155Z,11.10
2024-02-29T04:04:29.758Z,11.10
2024-02-29T04:06:59.744Z,11.10
2024-02-29T04:09:28.149Z,11.00
2024-02-29T04:11:56.442Z,11.00
2024-02-29T04:14:24.766Z,11.00
2024-02-29T04:16:53.070Z,11.00
2024-02-29T04:19:21.706Z,11.00
2024-02-29T04:21:50.314Z,11.00
2024-02-29T04:24:20.068Z,11.00
2024-02-29T04:26:48.438Z,11.00
2024-02-29T04:29:16.751Z,11.00
2024-02-29T04:31:49.245Z,10.90
2024-02-29T04:34:17.666Z,10.90
2024-02-29T04:36:46.009Z,10.90
2024-02-29T04:39:14.508Z,10.90
2024-02-29T04:41:44.275Z,10.90
2024-02-29T04:44:12.635Z,10.90
2024-02-29T04:46:41.020Z,10.90
2024-02-29T04:49:09.407Z,10.80
2024-02-29T04:51:40.427Z,10.80
2024-02-29T04:54:08.789Z,10.80
2024-02-29T04:56:38.873Z,10.80
2024-02-29T04:59:08.874Z,10.80
2024-02-29T05:01:37.286Z,10.80
2024-02-29T05:04:05.796Z,10.80
2024-02-29T05:06:34.099Z,10.80
2024-02-29T05:09:02.489Z,10.80
2024-02-29T05:11:30.939Z,10.70
2024-02-29T05:13:59.579Z,10.70
2024-02-29T05:16:29.310Z,10.70
2024-02-29T05:18:57.923Z,10.70
2024-02-29T05:21:27.112Z,10.70
2024-02-29T05:23:55.597Z,10.70
2024-02-29T05:26:23.992Z,10.70
2024-02-29T05:28:54.621Z,10.70
2024-02-29T05:31:23.022Z,10.70
2024-02-29T05:33:52.805Z,10.70
2024-02-29T05:36:21.197Z,10.70
2024-02-29T05:38:51.714Z,10.60
2024-02-29T05:41:20.230Z,10.60
2024-02-29T05:43:49.015Z,10.60
2024-02-29T05:46:17.827Z,10.60
2024-02-29T05:48:46.381Z,10.60
2024-02-29T05:51:16.204Z,10.60
2024-02-29T05:53:44.608Z,10.60
2024-02-29T05:56:14.801Z,10.60
2024-02-29T05:58:44.274Z,10.60
2024-02-29T06:01:13.098Z,10.60
2024-02-29T06:03:41.600Z,10.60
2024-02-29T06:06:11.641Z,10.60
2024-02-29T06:08:41.639Z,10.50
2024-02-29T06:11:14.188Z,10.60
2024-02-29T06:13:42.632Z,10.60
2024-02-29T06:16:13.703Z,10.50
2024-02-29T06:18:43.392Z,10.60
2024-02-29T06:21:14.671Z,10.50
2024-02-29T06:23:44.531Z,10.50
2024-02-29T06:26:12.985Z,10.50
2024-02-29T06:28:41.429Z,10.50
2024-02-29T06:31:10.120Z,10.50
2024-02-29T06:33:38.787Z,10.60
2024-02-29T06:36:10.092Z,10.50
2024-02-29T06:38:39.024Z,10.50
2024-02-29T06:41:11.337Z,10.50
2024-02-29T06:43:39.671Z,10.50
2024-02-29T08:25:40.497Z,11.20
2024-02-29T08:28:09.436Z,11.30
2024-02-29T08:31:16.815Z,11.40
2024-02-29T08:33:55.201Z,11.70
2024-02-29T08:36:35.000Z,12.30
2024-02-29T08:39:26.045Z,12.40
2024-02-29T08:42:00.433Z,12.30
2024-02-29T08:44:53.586Z,12.60
2024-02-29T08:47:45.893Z,13.30
2024-02-29T08:50:18.105Z,13.70
2024-02-29T08:53:11.497Z,14.20
2024-02-29T08:55:45.264Z,14.40
2024-02-29T08:58:20.108Z,14.70
2024-02-29T09:00:58.801Z,14.70
2024-02-29T09:03:41.074Z,14.90
2024-02-29T09:09:02.809Z,15.50
2024-02-29T09:10:01.467Z,16.10
2024-02-29T09:12:35.516Z,16.30
2024-02-29T09:15:08.217Z,16.40
2024-02-29T09:17:40.094Z,16.30
2024-02-29T09:20:12.083Z,16.00
2024-02-29T09:22:41.750Z,15.70
2024-02-29T09:25:11.875Z,15.50
2024-02-29T09:27:42.206Z,15.30
2024-02-29T09:30:12.041Z,15.20
2024-02-29T09:32:48.253Z,15.00
2024-02-29T09:35:20.117Z,14.90
2024-02-29T09:37:49.771Z,14.80
2024-02-29T09:40:21.786Z,14.70
2024-02-29T09:42:52.117Z,14.60
2024-02-29T09:45:25.459Z,14.50
2024-02-29T09:47:54.601Z,14.40
2024-02-29T09:50:23.371Z,14.30
2024-02-29T09:52:56.324Z,14.20
2024-02-29T09:55:25.694Z,14.10
2024-02-29T09:57:56.352Z,14.10
2024-02-29T10:00:31.367Z,14.20
2024-02-29T10:03:03.432Z,14.20
2024-02-29T10:05:40.729Z,14.30
2024-02-29T10:08:12.444Z,14.30
2024-02-29T10:10:41.696Z,14.30
2024-02-29T10:13:11.925Z,14.20
2024-02-29T10:15:40.709Z,14.20
2024-02-29T10:18:10.399Z,14.20
2024-02-29T10:20:39.233Z,14.20
2024-02-29T10:23:13.648Z,14.10
2024-02-29T10:25:44.208Z,14.10
2024-02-29T10:28:16.849Z,14.10
2024-02-29T10:30:53.491Z,14.10
2024-02-29T10:33:22.284Z,14.00
2024-02-29T10:35:51.908Z,13.90
2024-02-29T10:38:22.557Z,13.80
2024-02-29T10:40:53.372Z,13.70
2024-02-29T10:43:24.947Z,13.70
2024-02-29T10:45:56.603Z,13.80
2024-02-29T10:48:38.736Z,13.90
2024-02-29T10:51:22.590Z,13.90
2024-02-29T10:54:05.920Z,13.90
2024-02-29T10:57:17.327Z,13.80
2024-02-29T11:00:20.243Z,13.70
2024-02-29T11:02:52.523Z,13.70
2024-02-29T11:05:32.960Z,13.80
2024-02-29T11:08:08.112Z,13.90
2024-02-29T11:10:39.563Z,14.00
2024-02-29T11:13:09.816Z,14.20
2024-02-29T17:00:03.755Z,8.60
2024-02-29T17:02:33.683Z,8.50
2024-02-29T17:05:02.927Z,8.60
2024-02-29T17:07:31.609Z,8.60
2024-02-29T17:10:01.064Z,8.60
2024-02-29T17:12:30.430Z,8.60
2024-02-29T17:14:59.040Z,8.50
2024-02-29T17:17:30.024Z,8.50
2024-02-29T17:19:58.644Z,8.50
2024-02-29T17:22:28.835Z,8.50
2024-02-29T17:24:57.684Z,8.40
2024-02-29T17:27:26.839Z,8.40
2024-02-29T17:29:55.906Z,8.40
2024-02-29T17:32:26.386Z,8.40
2024-02-29T17:34:56.504Z,8.30
2024-02-29T17:37:27.927Z,8.30
2024-02-29T17:39:57.943Z,8.30
2024-02-29T17:42:26.464Z,8.20
2024-02-29T17:44:55.120Z,8.20
2024-02-29T17:47:23.643Z,8.10
2024-02-29T17:49:52.589Z,8.10
2024-02-29T17:52:22.648Z,8.10
2024-02-29T17:54:56.424Z,8.10
2024-02-29T17:57:26.524Z,8.10
2024-02-29T17:59:58.268Z,8.10
2024-02-29T18:02:30.655Z,8.10
2024-02-29T18:05:00.237Z,8.00
2024-02-29T18:07:30.564Z,8.00
2024-02-29T18:10:01.250Z,8.00
2024-02-29T18:12:31.576Z,8.00
2024-02-29T18:15:05.679Z,8.10
2024-02-29T18:17:40.627Z,8.00
2024-02-29T18:20:10.493Z,8.00
2024-02-29T18:22:42.807Z,8.00
2024-02-29T18:25:11.657Z,8.00
2024-02-29T18:27:40.525Z,8.00
2024-02-29T18:30:10.589Z,8.00
2024-02-29T18:32:39.604Z,8.00
2024-02-29T18:35:10.589Z,8.00
2024-02-29T18:37:40.930Z,8.00
2024-02-29T18:40:12.673Z,8.00
2024-02-29T18:42:41.602Z,7.90
2024-02-29T18:45:11.036Z,7.80
2024-02-29T18:47:39.658Z,7.90
2024-02-29T18:50:08.745Z,7.90
2024-02-29T18:52:37.384Z,7.90
2024-02-29T18:55:09.042Z,7.90
2024-02-29T18:57:38.986Z,7.90
2024-02-29T19:00:09.771Z,7.90
2024-02-29T19:02:38.276Z,7.90
2024-02-29T19:05:07.598Z,7.90
2024-02-29T19:07:36.185Z,7.90
2024-02-29T19:10:06.144Z,7.80
2024-02-29T19:12:34.714Z,7.80
2024-02-29T19:15:05.128Z,7.80
2024-02-29T19:17:36.049Z,7.80
2024-02-29T19:20:07.763Z,7.80
2024-02-29T19:22:36.636Z,7.80
2024-02-29T19:25:06.819Z,7.80
2024-02-29T19:27:35.685Z,7.70
2024-02-29T19:30:06.996Z,7.70
2024-02-29T19:32:35.799Z,7.60
2024-02-29T19:35:04.636Z,7.60
2024-02-29T19:37:33.181Z,7.60
2024-02-29T19:40:01.917Z,7.50
2024-02-29T19:42:30.680Z,7.50
2024-02-29T19:45:00.601Z,7.50
2024-02-29T19:47:30.783Z,7.50
2024-02-29T19:49:58.643Z,7.40
2024-02-29T19:52:34.537Z,7.50
2024-02-29T19:55:06.622Z,7.40
2024-02-29T19:57:36.192Z,7.40
2024-02-29T20:00:07.407Z,7.40
2024-02-29T20:02:46.244Z,7.40
2024-02-29T20:05:15.665Z,7.30
2024-02-29T20:07:44.144Z,7.30
2024-02-29T20:10:12.845Z,7.20
2024-02-29T20:12:41.244Z,7.20
2024-02-29T20:15:12.435Z,7.20
2024-02-29T20:17:42.749Z,7.20
2024-02-29T20:20:13.766Z,7.10
2024-02-29T20:22:42.288Z,7.10
2024-02-29T20:25:11.413Z,7.10
2024-02-29T20:27:40.066Z,7.10
2024-02-29T20:30:09.712Z,7.00
2024-02-29T20:32:40.246Z,7.00
2024-02-29T20:35:09.438Z,7.00
2024-02-29T20:37:39.331Z,7.00
2024-02-29T20:40:09.164Z,7.00
2024-02-29T20:42:37.724Z,7.00
2024-02-29T20:45:07.512Z,7.00
2024-02-29T20:47:36.228Z,7.00
2024-02-29T20:50:06.886Z,7.00
2024-02-29T20:52:35.760Z,7.00
2024-02-29T20:55:06.477Z,7.00
2024-02-29T20:57:35.201Z,7.00
2024-02-29T21:00:04.776Z,6.90
2024-02-29T21:02:33.375Z,7.00
2024-02-29T21:05:05.534Z,7.00
2024-02-29T21:07:34.823Z,7.00
2024-02-29T21:10:05.263Z,7.00
2024-02-29T21:12:35.694Z,6.90
2024-02-29T21:15:04.612Z,6.90
2024-02-29T21:17:33.345Z,6.90
2024-02-29T21:20:01.908Z,6.90
2024-02-29T21:22:30.685Z,6.80
2024-02-29T21:25:02.444Z,6.70
2024-02-29T21:27:31.118Z,6.70
2024-02-29T21:30:01.857Z,6.70
2024-02-29T21:32:30.447Z,6.70
2024-02-29T21:34:58.918Z,6.70
2024-02-29T21:37:27.460Z,6.70
2024-02-29T21:39:56.913Z,6.70
2024-02-29T21:42:25.444Z,6.70
2024-02-29T21:44:53.842Z,6.70
2024-02-29T21:47:23.598Z,6.60
2024-02-29T21:49:52.029Z,6.60
2024-02-29T21:52:20.485Z,6.60
2024-02-29T21:54:48.981Z,6.60
2024-02-29T21:57:18.279Z,6.60
2024-02-29T21:59:47.107Z,6.60
2024-02-29T22:02:15.779Z,6.60
2024-02-29T22:04:45.901Z,6.60
2024-02-29T22:07:14.478Z,6.50
2024-02-29T22:09:45.549Z,6.60
2024-02-29T22:12:14.258Z,6.50
2024-02-29T22:14:42.993Z,6.50
2024-02-29T22:17:11.673Z,6.50
2024-02-29T22:19:40.252Z,6.40
2024-02-29T22:22:10.277Z,6.40
2024-02-29T22:24:41.425Z,6.40
2024-02-29T22:27:10.182Z,6.40
2024-02-29T22:29:38.693Z,6.30
2024-02-29T22:32:07.828Z,6.30
2024-02-29T22:34:36.518Z,6.30
2024-02-29T22:37:05.157Z,6.20
2024-02-29T22:39:34.983Z,6.20
2024-02-29T22:42:03.759Z,6.20
2024-02-29T22:44:34.065Z,6.20
2024-02-29T22:47:02.704Z,6.10
2024-02-29T22:49:31.155Z,6.10
2024-02-29T22:51:59.608Z,6.10
2024-02-29T22:54:27.952Z,6.00
2024-02-29T22:56:57.648Z,6.00
2024-02-29T22:59:25.988Z,6.00
2024-02-29T23:01:54.633Z,6.00
2024-02-29T23:04:23.341Z,5.90
2024-02-29T23:06:51.954Z,5.90
2024-02-29T23:09:20.316Z,5.90
2024-02-29T23:11:48.861Z,5.90
2024-02-29T23:14:18.739Z,5.80
2024-02-29T23:16:47.179Z,5.80
2024-02-29T23:19:15.668Z,5.80
2024-02-29T23:21:44.052Z,5.80
2024-02-29T23:24:12.608Z,5.70
2024-02-29T23:26:40.969Z,5.60
2024-02-29T23:29:09.285Z,5.70
2024-02-29T23:31:39.776Z,5.70
2024-02-29T23:34:08.288Z,5.60
2024-02-29T23:36:36.830Z,5.50
2024-02-29T23:39:05.988Z,5.50
2024-02-29T23:41:34.400Z,5.50
2024-02-29T23:44:02.726Z,5.50
2024-02-29T23:46:31.125Z,5.40
2024-02-29T23:49:00.903Z,5.40
2024-02-29T23:51:29.257Z,5.40
2024-02-29T23:53:57.594Z,5.30
2024-02-29T23:56:25.982Z,5.30
2024-02-29T23:58:54.449Z,5.30
